sensor_id;sensor_type;location;lat;lon;timestamp;pressure;altitude;pressure_sealevel;temperature;humidity
60817;BME280;51921;51.518;-3.188;2023-02-14T00:00:11;102751.74;;;3.78;100.00
60817;BME280;51921;51.518;-3.188;2023-02-14T00:02:35;102748.90;;;2.36;100.00
60817;BME280;51921;51.518;-3.188;2023-02-14T00:05:06;102742.11;;;3.35;100.00
60817;BME280;51921;51.518;-3.188;2023-02-14T00:07:26;102737.28;;;3.16;100.00
60817;BME280;51921;51.518;-3.188;2023-02-14T00:09:52;102732.85;;;2.66;100.00
60817;BME280;51921;51.518;-3.188;2023-02-14T00:12:17;102733.24;;;2.22;100.00
60817;BME280;51921;51.518;-3.188;2023-02-14T00:14:43;102737.24;;;1.45;100.00
60817;BME280;51921;51.518;-3.188;2023-02-14T00:17:08;102741.95;;;3.20;100.00
60817;BME280;51921;51.518;-3.188;2023-02-14T00:19:33;102736.37;;;5.16;100.00
60817;BME280;51921;51.518;-3.188;2023-02-14T00:21:59;102733.03;;;5.74;100.00
60817;BME280;51921;51.518;-3.188;2023-02-14T00:24:26;102733.26;;;3.08;100.00
60817;BME280;51921;51.518;-3.188;2023-02-14T00:26:51;102736.53;;;2.28;100.00
60817;BME280;51921;51.518;-3.188;2023-02-14T00:29:17;102742.42;;;3.91;100.00
60817;BME280;51921;51.518;-3.188;2023-02-14T00:31:41;102739.09;;;4.23;100.00
60817;BME280;51921;51.518;-3.188;2023-02-14T00:34:06;102728.24;;;4.04;100.00
60817;BME280;51921;51.518;-3.188;2023-02-14T00:36:31;102726.93;;;3.31;100.00
60817;BME280;51921;51.518;-3.188;2023-02-14T00:38:56;102733.45;;;3.66;100.00
60817;BME280;51921;51.518;-3.188;2023-02-14T00:41:22;102739.82;;;5.46;100.00
60817;BME280;51921;51.518;-3.188;2023-02-14T00:43:47;102729.87;;;6.67;100.00
60817;BME280;51921;51.518;-3.188;2023-02-14T00:46:12;102721.41;;;4.40;100.00
60817;BME280;51921;51.518;-3.188;2023-02-14T00:48:37;102717.86;;;1.97;100.00
60817;BME280;51921;51.518;-3.188;2023-02-14T00:51:02;102712.25;;;1.78;100.00
60817;BME280;51921;51.518;-3.188;2023-02-14T00:53:27;102716.60;;;1.90;100.00
60817;BME280;51921;51.518;-3.188;2023-02-14T00:55:53;102725.33;;;1.67;100.00
60817;BME280;51921;51.518;-3.188;2023-02-14T00:58:18;102722.48;;;2.41;100.00
60817;BME280;51921;51.518;-3.188;2023-02-14T01:00:44;102711.05;;;2.87;100.00
60817;BME280;51921;51.518;-3.188;2023-02-14T01:03:10;102709.14;;;2.26;100.00
60817;BME280;51921;51.518;-3.188;2023-02-14T01:05:35;102710.90;;;2.65;100.00
60817;BME280;51921;51.518;-3.188;2023-02-14T01:08:01;102710.05;;;2.62;100.00
60817;BME280;51921;51.518;-3.188;2023-02-14T01:10:26;102698.07;;;1.80;100.00
60817;BME280;51921;51.518;-3.188;2023-02-14T01:12:52;102694.28;;;0.79;100.00
60817;BME280;51921;51.518;-3.188;2023-02-14T01:15:18;102703.67;;;2.59;100.00
60817;BME280;51921;51.518;-3.188;2023-02-14T01:17:43;102703.74;;;3.82;100.00
60817;BME280;51921;51.518;-3.188;2023-02-14T01:20:09;102706.70;;;4.32;100.00
60817;BME280;51921;51.518;-3.188;2023-02-14T01:22:34;102707.43;;;3.73;100.00
60817;BME280;51921;51.518;-3.188;2023-02-14T01:24:59;102701.67;;;3.10;100.00
60817;BME280;51921;51.518;-3.188;2023-02-14T01:27:25;102696.91;;;3.08;100.00
60817;BME280;51921;51.518;-3.188;2023-02-14T01:29:50;102694.41;;;3.80;100.00
60817;BME280;51921;51.518;-3.188;2023-02-14T01:32:15;102694.58;;;5.38;100.00
60817;BME280;51921;51.518;-3.188;2023-02-14T01:34:46;102694.61;;;6.25;100.00
60817;BME280;51921;51.518;-3.188;2023-02-14T01:37:06;102693.19;;;5.61;100.00
60817;BME280;51921;51.518;-3.188;2023-02-14T01:39:32;102691.81;;;5.61;100.00
60817;BME280;51921;51.518;-3.188;2023-02-14T01:41:57;102697.06;;;5.18;100.00
60817;BME280;51921;51.518;-3.188;2023-02-14T01:46:49;102696.58;;;5.62;97.28
60817;BME280;51921;51.518;-3.188;2023-02-14T01:49:17;102696.68;;;5.76;99.17
60817;BME280;51921;51.518;-3.188;2023-02-14T01:51:43;102694.64;;;6.11;99.53
60817;BME280;51921;51.518;-3.188;2023-02-14T01:54:07;102698.89;;;6.44;94.47
60817;BME280;51921;51.518;-3.188;2023-02-14T01:56:35;102698.58;;;6.12;95.00
60817;BME280;51921;51.518;-3.188;2023-02-14T01:58:59;102702.43;;;6.07;94.03
60817;BME280;51921;51.518;-3.188;2023-02-14T02:01:22;102705.73;;;6.48;91.59
60817;BME280;51921;51.518;-3.188;2023-02-14T02:03:50;102703.70;;;5.97;92.23
60817;BME280;51921;51.518;-3.188;2023-02-14T02:06:15;102705.27;;;5.58;92.32
60817;BME280;51921;51.518;-3.188;2023-02-14T02:08:40;102703.68;;;6.31;90.73
60817;BME280;51921;51.518;-3.188;2023-02-14T02:11:03;102704.61;;;4.55;95.75
60817;BME280;51921;51.518;-3.188;2023-02-14T02:13:28;102704.46;;;5.04;95.66
60817;BME280;51921;51.518;-3.188;2023-02-14T02:16:09;102707.45;;;3.81;98.46
60817;BME280;51921;51.518;-3.188;2023-02-14T02:18:24;102710.18;;;2.24;100.00
60817;BME280;51921;51.518;-3.188;2023-02-14T02:20:59;102716.08;;;1.87;100.00
60817;BME280;51921;51.518;-3.188;2023-02-14T02:25:49;102712.01;;;5.03;98.58
60817;BME280;51921;51.518;-3.188;2023-02-14T02:28:14;102708.91;;;5.58;97.94
60817;BME280;51921;51.518;-3.188;2023-02-14T02:30:38;102707.59;;;4.89;94.86
60817;BME280;51921;51.518;-3.188;2023-02-14T02:33:08;102705.60;;;3.84;100.00
60817;BME280;51921;51.518;-3.188;2023-02-14T02:35:28;102704.60;;;5.02;96.22
60817;BME280;51921;51.518;-3.188;2023-02-14T02:37:52;102708.35;;;4.12;100.00
60817;BME280;51921;51.518;-3.188;2023-02-14T02:40:21;102709.00;;;3.89;100.00
60817;BME280;51921;51.518;-3.188;2023-02-14T02:42:41;102709.83;;;5.34;96.31
60817;BME280;51921;51.518;-3.188;2023-02-14T02:45:06;102712.65;;;4.85;95.81
60817;BME280;51921;51.518;-3.188;2023-02-14T02:47:27;102710.08;;;3.89;97.42
60817;BME280;51921;51.518;-3.188;2023-02-14T02:49:55;102711.72;;;1.45;100.00
60817;BME280;51921;51.518;-3.188;2023-02-14T02:52:20;102715.86;;;0.74;100.00
60817;BME280;51921;51.518;-3.188;2023-02-14T02:54:43;102715.41;;;0.05;100.00
60817;BME280;51921;51.518;-3.188;2023-02-14T02:57:12;102711.12;;;1.88;100.00
60817;BME280;51921;51.518;-3.188;2023-02-14T02:59:35;102709.15;;;1.81;100.00
60817;BME280;51921;51.518;-3.188;2023-02-14T03:02:03;102710.09;;;2.80;100.00
60817;BME280;51921;51.518;-3.188;2023-02-14T03:04:23;102706.39;;;0.97;100.00
60817;BME280;51921;51.518;-3.188;2023-02-14T03:06:48;102704.01;;;2.86;100.00
60817;BME280;51921;51.518;-3.188;2023-02-14T03:11:44;102708.63;;;-0.77;100.00
60817;BME280;51921;51.518;-3.188;2023-02-14T03:14:13;102708.03;;;-0.38;100.00
60817;BME280;51921;51.518;-3.188;2023-02-14T03:16:34;102709.61;;;-0.26;100.00
60817;BME280;51921;51.518;-3.188;2023-02-14T03:19:09;102710.97;;;0.26;100.00
60817;BME280;51921;51.518;-3.188;2023-02-14T03:21:27;102708.88;;;1.23;100.00
60817;BME280;51921;51.518;-3.188;2023-02-14T03:23:53;102710.48;;;1.30;100.00
60817;BME280;51921;51.518;-3.188;2023-02-14T03:26:16;102715.79;;;0.31;100.00
60817;BME280;51921;51.518;-3.188;2023-02-14T03:28:44;102710.24;;;-0.39;100.00
60817;BME280;51921;51.518;-3.188;2023-02-14T03:31:09;102707.25;;;-0.53;100.00
60817;BME280;51921;51.518;-3.188;2023-02-14T03:33:32;102700.28;;;-0.42;100.00
60817;BME280;51921;51.518;-3.188;2023-02-14T03:36:00;102701.65;;;-0.57;100.00
60817;BME280;51921;51.518;-3.188;2023-02-14T03:38:23;102702.23;;;-0.04;100.00
60817;BME280;51921;51.518;-3.188;2023-02-14T03:40:47;102700.38;;;-0.40;100.00
60817;BME280;51921;51.518;-3.188;2023-02-14T03:43:13;102708.85;;;0.10;100.00
60817;BME280;51921;51.518;-3.188;2023-02-14T03:45:38;102701.35;;;2.32;100.00
60817;BME280;51921;51.518;-3.188;2023-02-14T03:48:03;102696.03;;;1.99;100.00
60817;BME280;51921;51.518;-3.188;2023-02-14T03:50:27;102695.74;;;1.89;100.00
60817;BME280;51921;51.518;-3.188;2023-02-14T03:52:52;102696.23;;;3.20;100.00
60817;BME280;51921;51.518;-3.188;2023-02-14T03:55:22;102692.57;;;2.54;100.00
60817;BME280;51921;51.518;-3.188;2023-02-14T03:57:47;102695.93;;;1.05;100.00
60817;BME280;51921;51.518;-3.188;2023-02-14T04:00:09;102697.15;;;0.92;100.00
60817;BME280;51921;51.518;-3.188;2023-02-14T04:02:36;102689.86;;;3.02;100.00
60817;BME280;51921;51.518;-3.188;2023-02-14T04:05:00;102689.95;;;3.47;100.00
60817;BME280;51921;51.518;-3.188;2023-02-14T04:07:25;102686.24;;;4.44;100.00
60817;BME280;51921;51.518;-3.188;2023-02-14T04:09:51;102681.14;;;1.67;100.00
60817;BME280;51921;51.518;-3.188;2023-02-14T04:12:17;102684.10;;;1.34;100.00
60817;BME280;51921;51.518;-3.188;2023-02-14T04:14:41;102687.25;;;0.42;100.00
60817;BME280;51921;51.518;-3.188;2023-02-14T04:17:06;102691.02;;;-0.03;100.00
60817;BME280;51921;51.518;-3.188;2023-02-14T04:19:33;102700.02;;;0.27;100.00
60817;BME280;51921;51.518;-3.188;2023-02-14T04:21:58;102694.94;;;0.84;100.00
60817;BME280;51921;51.518;-3.188;2023-02-14T04:24:24;102693.50;;;2.32;100.00
60817;BME280;51921;51.518;-3.188;2023-02-14T04:26:49;102692.76;;;3.07;100.00
60817;BME280;51921;51.518;-3.188;2023-02-14T04:29:14;102692.48;;;2.12;100.00
60817;BME280;51921;51.518;-3.188;2023-02-14T04:31:39;102695.77;;;2.43;100.00
60817;BME280;51921;51.518;-3.188;2023-02-14T04:34:05;102696.81;;;3.56;100.00
60817;BME280;51921;51.518;-3.188;2023-02-14T04:36:30;102686.04;;;1.80;100.00
60817;BME280;51921;51.518;-3.188;2023-02-14T04:38:55;102685.37;;;0.33;100.00
60817;BME280;51921;51.518;-3.188;2023-02-14T04:41:21;102685.55;;;0.06;100.00
60817;BME280;51921;51.518;-3.188;2023-02-14T04:43:46;102687.69;;;-0.36;100.00
60817;BME280;51921;51.518;-3.188;2023-02-14T04:46:12;102677.25;;;-0.18;100.00
60817;BME280;51921;51.518;-3.188;2023-02-14T04:48:37;102676.72;;;-0.49;100.00
60817;BME280;51921;51.518;-3.188;2023-02-14T04:51:03;102680.83;;;-0.75;100.00
60817;BME280;51921;51.518;-3.188;2023-02-14T04:53:28;102686.28;;;0.61;100.00
60817;BME280;51921;51.518;-3.188;2023-02-14T04:55:53;102685.69;;;2.31;100.00
60817;BME280;51921;51.518;-3.188;2023-02-14T04:58:19;102688.77;;;2.22;100.00
60817;BME280;51921;51.518;-3.188;2023-02-14T05:00:44;102692.62;;;1.35;100.00
60817;BME280;51921;51.518;-3.188;2023-02-14T05:03:09;102691.11;;;2.28;100.00
60817;BME280;51921;51.518;-3.188;2023-02-14T05:05:35;102688.20;;;2.69;100.00
60817;BME280;51921;51.518;-3.188;2023-02-14T05:08:00;102689.03;;;1.49;100.00
60817;BME280;51921;51.518;-3.188;2023-02-14T05:10:26;102690.21;;;1.96;100.00
60817;BME280;51921;51.518;-3.188;2023-02-14T05:12:52;102692.96;;;2.54;100.00
60817;BME280;51921;51.518;-3.188;2023-02-14T05:15:17;102694.57;;;2.21;100.00
60817;BME280;51921;51.518;-3.188;2023-02-14T05:17:43;102699.27;;;1.86;100.00
60817;BME280;51921;51.518;-3.188;2023-02-14T05:20:09;102699.20;;;2.51;100.00
60817;BME280;51921;51.518;-3.188;2023-02-14T05:22:33;102694.35;;;2.03;100.00
60817;BME280;51921;51.518;-3.188;2023-02-14T05:24:59;102694.33;;;1.10;100.00
60817;BME280;51921;51.518;-3.188;2023-02-14T05:27:25;102695.56;;;1.05;100.00
60817;BME280;51921;51.518;-3.188;2023-02-14T05:29:50;102694.16;;;1.31;100.00
60817;BME280;51921;51.518;-3.188;2023-02-14T05:32:16;102694.39;;;1.40;100.00
60817;BME280;51921;51.518;-3.188;2023-02-14T05:34:41;102690.76;;;1.35;100.00
60817;BME280;51921;51.518;-3.188;2023-02-14T05:37:07;102688.27;;;0.91;100.00
60817;BME280;51921;51.518;-3.188;2023-02-14T05:39:33;102690.27;;;0.41;100.00
60817;BME280;51921;51.518;-3.188;2023-02-14T05:42:03;102695.85;;;0.34;100.00
60817;BME280;51921;51.518;-3.188;2023-02-14T05:44:23;102692.73;;;-0.18;100.00
60817;BME280;51921;51.518;-3.188;2023-02-14T05:46:49;102695.18;;;0.15;100.00
60817;BME280;51921;51.518;-3.188;2023-02-14T05:49:14;102691.51;;;1.12;100.00
60817;BME280;51921;51.518;-3.188;2023-02-14T05:51:40;102696.24;;;0.10;100.00
60817;BME280;51921;51.518;-3.188;2023-02-14T05:54:06;102699.57;;;-0.18;100.00
60817;BME280;51921;51.518;-3.188;2023-02-14T05:56:31;102705.40;;;-0.01;100.00
60817;BME280;51921;51.518;-3.188;2023-02-14T05:58:57;102710.22;;;0.02;100.00
60817;BME280;51921;51.518;-3.188;2023-02-14T06:01:22;102702.14;;;-0.13;100.00
60817;BME280;51921;51.518;-3.188;2023-02-14T06:03:48;102701.78;;;-0.18;100.00
60817;BME280;51921;51.518;-3.188;2023-02-14T06:06:14;102703.18;;;0.20;100.00
60817;BME280;51921;51.518;-3.188;2023-02-14T06:08:39;102704.46;;;0.10;100.00
60817;BME280;51921;51.518;-3.188;2023-02-14T06:11:05;102707.58;;;0.45;100.00
60817;BME280;51921;51.518;-3.188;2023-02-14T06:13:30;102704.72;;;0.06;100.00
60817;BME280;51921;51.518;-3.188;2023-02-14T06:15:56;102702.32;;;-0.07;100.00
60817;BME280;51921;51.518;-3.188;2023-02-14T06:18:21;102705.15;;;0.34;100.00
60817;BME280;51921;51.518;-3.188;2023-02-14T06:20:47;102696.41;;;0.65;100.00
60817;BME280;51921;51.518;-3.188;2023-02-14T06:23:12;102691.74;;;0.82;100.00
60817;BME280;51921;51.518;-3.188;2023-02-14T06:25:38;102692.64;;;0.54;100.00
60817;BME280;51921;51.518;-3.188;2023-02-14T06:28:04;102697.32;;;0.81;100.00
60817;BME280;51921;51.518;-3.188;2023-02-14T06:30:29;102697.89;;;0.47;100.00
60817;BME280;51921;51.518;-3.188;2023-02-14T06:32:55;102697.95;;;0.56;100.00
60817;BME280;51921;51.518;-3.188;2023-02-14T06:35:20;102701.93;;;1.39;100.00
60817;BME280;51921;51.518;-3.188;2023-02-14T06:37:46;102697.83;;;1.19;100.00
60817;BME280;51921;51.518;-3.188;2023-02-14T06:40:13;102699.54;;;1.47;100.00
60817;BME280;51921;51.518;-3.188;2023-02-14T06:42:36;102698.89;;;0.89;100.00
60817;BME280;51921;51.518;-3.188;2023-02-14T06:45:03;102707.40;;;0.79;100.00
60817;BME280;51921;51.518;-3.188;2023-02-14T06:47:27;102711.52;;;0.51;100.00
60817;BME280;51921;51.518;-3.188;2023-02-14T06:49:52;102712.71;;;0.43;100.00
60817;BME280;51921;51.518;-3.188;2023-02-14T06:52:18;102712.80;;;0.24;100.00
60817;BME280;51921;51.518;-3.188;2023-02-14T06:54:44;102711.60;;;0.46;100.00
60817;BME280;51921;51.518;-3.188;2023-02-14T06:57:09;102707.78;;;0.17;100.00
60817;BME280;51921;51.518;-3.188;2023-02-14T06:59:35;102715.38;;;0.42;100.00
60817;BME280;51921;51.518;-3.188;2023-02-14T07:02:01;102716.65;;;1.24;100.00
60817;BME280;51921;51.518;-3.188;2023-02-14T07:04:26;102708.99;;;2.40;100.00
60817;BME280;51921;51.518;-3.188;2023-02-14T07:06:52;102708.92;;;1.07;100.00
60817;BME280;51921;51.518;-3.188;2023-02-14T07:09:17;102714.82;;;1.24;100.00
60817;BME280;51921;51.518;-3.188;2023-02-14T07:11:43;102717.83;;;1.11;100.00
60817;BME280;51921;51.518;-3.188;2023-02-14T07:14:08;102713.62;;;0.86;100.00
60817;BME280;51921;51.518;-3.188;2023-02-14T07:16:33;102713.64;;;3.17;100.00
60817;BME280;51921;51.518;-3.188;2023-02-14T07:18:59;102704.27;;;2.66;100.00
60817;BME280;51921;51.518;-3.188;2023-02-14T07:21:25;102708.86;;;1.39;100.00
60817;BME280;51921;51.518;-3.188;2023-02-14T07:23:50;102720.04;;;1.66;100.00
60817;BME280;51921;51.518;-3.188;2023-02-14T07:26:16;102716.66;;;2.05;100.00
60817;BME280;51921;51.518;-3.188;2023-02-14T07:28:40;102718.33;;;2.70;100.00
60817;BME280;51921;51.518;-3.188;2023-02-14T07:31:12;102714.12;;;1.42;100.00
60817;BME280;51921;51.518;-3.188;2023-02-14T07:33:32;102724.46;;;2.13;100.00
60817;BME280;51921;51.518;-3.188;2023-02-14T07:35:57;102718.36;;;3.90;100.00
60817;BME280;51921;51.518;-3.188;2023-02-14T07:38:23;102713.57;;;4.46;100.00
60817;BME280;51921;51.518;-3.188;2023-02-14T07:40:52;102708.46;;;3.99;100.00
60817;BME280;51921;51.518;-3.188;2023-02-14T07:43:14;102702.57;;;4.91;100.00
60817;BME280;51921;51.518;-3.188;2023-02-14T07:45:40;102708.78;;;4.17;100.00
60817;BME280;51921;51.518;-3.188;2023-02-14T07:48:05;102700.96;;;5.36;100.00
60817;BME280;51921;51.518;-3.188;2023-02-14T07:50:31;102697.57;;;3.14;100.00
60817;BME280;51921;51.518;-3.188;2023-02-14T07:52:56;102711.08;;;2.98;100.00
60817;BME280;51921;51.518;-3.188;2023-02-14T07:55:22;102703.66;;;3.93;100.00
60817;BME280;51921;51.518;-3.188;2023-02-14T07:57:47;102706.32;;;6.49;100.00
60817;BME280;51921;51.518;-3.188;2023-02-14T08:00:13;102698.68;;;3.91;100.00
60817;BME280;51921;51.518;-3.188;2023-02-14T08:02:38;102709.10;;;2.75;100.00
60817;BME280;51921;51.518;-3.188;2023-02-14T08:05:03;102712.96;;;5.03;100.00
60817;BME280;51921;51.518;-3.188;2023-02-14T08:07:34;102710.93;;;4.73;100.00
60817;BME280;51921;51.518;-3.188;2023-02-14T08:09:54;102714.62;;;4.14;100.00
60817;BME280;51921;51.518;-3.188;2023-02-14T08:12:20;102709.03;;;3.07;100.00
60817;BME280;51921;51.518;-3.188;2023-02-14T08:14:45;102716.79;;;2.50;100.00
60817;BME280;51921;51.518;-3.188;2023-02-14T08:17:11;102720.65;;;4.03;100.00
60817;BME280;51921;51.518;-3.188;2023-02-14T08:19:36;102716.75;;;3.11;100.00
60817;BME280;51921;51.518;-3.188;2023-02-14T08:22:03;102719.91;;;2.75;100.00
60817;BME280;51921;51.518;-3.188;2023-02-14T08:24:28;102720.35;;;1.92;100.00
60817;BME280;51921;51.518;-3.188;2023-02-14T08:26:53;102728.15;;;3.74;100.00
60817;BME280;51921;51.518;-3.188;2023-02-14T08:29:19;102715.91;;;4.45;100.00
60817;BME280;51921;51.518;-3.188;2023-02-14T08:31:50;102717.94;;;3.87;100.00
60817;BME280;51921;51.518;-3.188;2023-02-14T08:34:09;102708.24;;;3.04;100.00
60817;BME280;51921;51.518;-3.188;2023-02-14T08:36:35;102716.79;;;3.67;100.00
60817;BME280;51921;51.518;-3.188;2023-02-14T08:39:02;102713.20;;;6.07;100.00
60817;BME280;51921;51.518;-3.188;2023-02-14T08:41:26;102717.79;;;3.76;100.00
60817;BME280;51921;51.518;-3.188;2023-02-14T08:43:51;102711.74;;;5.00;100.00
60817;BME280;51921;51.518;-3.188;2023-02-14T08:46:17;102708.64;;;2.87;100.00
60817;BME280;51921;51.518;-3.188;2023-02-14T08:48:42;102710.99;;;3.13;100.00
60817;BME280;51921;51.518;-3.188;2023-02-14T08:51:09;102719.42;;;4.29;100.00
60817;BME280;51921;51.518;-3.188;2023-02-14T08:53:33;102721.38;;;3.44;100.00
60817;BME280;51921;51.518;-3.188;2023-02-14T08:56:02;102719.48;;;3.21;100.00
60817;BME280;51921;51.518;-3.188;2023-02-14T08:58:24;102723.90;;;4.91;100.00
60817;BME280;51921;51.518;-3.188;2023-02-14T09:00:50;102722.86;;;2.17;100.00
60817;BME280;51921;51.518;-3.188;2023-02-14T09:03:15;102727.05;;;1.99;100.00
60817;BME280;51921;51.518;-3.188;2023-02-14T09:05:41;102726.43;;;2.06;100.00
60817;BME280;51921;51.518;-3.188;2023-02-14T09:08:06;102733.95;;;2.07;100.00
60817;BME280;51921;51.518;-3.188;2023-02-14T09:10:32;102735.37;;;2.46;100.00
60817;BME280;51921;51.518;-3.188;2023-02-14T09:12:58;102728.50;;;3.13;100.00
60817;BME280;51921;51.518;-3.188;2023-02-14T09:15:23;102731.32;;;2.22;100.00
60817;BME280;51921;51.518;-3.188;2023-02-14T09:17:49;102733.07;;;2.92;100.00
60817;BME280;51921;51.518;-3.188;2023-02-14T09:20:15;102726.13;;;3.04;100.00
60817;BME280;51921;51.518;-3.188;2023-02-14T09:22:40;102729.23;;;3.38;100.00
60817;BME280;51921;51.518;-3.188;2023-02-14T09:25:06;102723.86;;;2.25;100.00
60817;BME280;51921;51.518;-3.188;2023-02-14T09:27:31;102728.36;;;2.59;100.00
60817;BME280;51921;51.518;-3.188;2023-02-14T09:29:57;102726.34;;;1.50;100.00
60817;BME280;51921;51.518;-3.188;2023-02-14T09:32:23;102731.64;;;1.57;100.00
60817;BME280;51921;51.518;-3.188;2023-02-14T09:34:49;102731.31;;;2.72;100.00
60817;BME280;51921;51.518;-3.188;2023-02-14T09:37:14;102716.60;;;4.23;100.00
60817;BME280;51921;51.518;-3.188;2023-02-14T09:39:39;102705.27;;;4.42;100.00
60817;BME280;51921;51.518;-3.188;2023-02-14T09:42:19;102709.79;;;4.43;100.00
60817;BME280;51921;51.518;-3.188;2023-02-14T09:44:34;102707.96;;;4.99;100.00
60817;BME280;51921;51.518;-3.188;2023-02-14T09:47:00;102704.24;;;3.55;100.00
60817;BME280;51921;51.518;-3.188;2023-02-14T09:49:28;102716.17;;;3.73;100.00
60817;BME280;51921;51.518;-3.188;2023-02-14T09:51:50;102716.00;;;3.92;100.00
60817;BME280;51921;51.518;-3.188;2023-02-14T09:54:15;102709.04;;;3.76;100.00
60817;BME280;51921;51.518;-3.188;2023-02-14T09:56:49;102709.88;;;2.40;100.00
60817;BME280;51921;51.518;-3.188;2023-02-14T09:59:10;102703.20;;;3.57;100.00
60817;BME280;51921;51.518;-3.188;2023-02-14T10:01:33;102702.90;;;5.22;100.00
60817;BME280;51921;51.518;-3.188;2023-02-14T10:04:04;102693.74;;;5.05;100.00
60817;BME280;51921;51.518;-3.188;2023-02-14T10:08:54;102693.49;;;5.98;100.00
60817;BME280;51921;51.518;-3.188;2023-02-14T10:11:14;102694.62;;;5.78;100.00
60817;BME280;51921;51.518;-3.188;2023-02-14T10:13:40;102699.00;;;6.67;100.00
60817;BME280;51921;51.518;-3.188;2023-02-14T10:16:04;102697.96;;;4.08;100.00
60817;BME280;51921;51.518;-3.188;2023-02-14T10:18:32;102703.62;;;3.88;100.00
60817;BME280;51921;51.518;-3.188;2023-02-14T10:20:55;102708.94;;;4.37;100.00
60817;BME280;51921;51.518;-3.188;2023-02-14T10:23:26;102702.55;;;5.95;100.00
60817;BME280;51921;51.518;-3.188;2023-02-14T10:25:47;102701.51;;;6.45;100.00
60817;BME280;51921;51.518;-3.188;2023-02-14T10:28:12;102701.09;;;6.38;100.00
60817;BME280;51921;51.518;-3.188;2023-02-14T10:30:37;102711.15;;;4.65;100.00
60817;BME280;51921;51.518;-3.188;2023-02-14T10:33:04;102707.29;;;5.51;100.00
60817;BME280;51921;51.518;-3.188;2023-02-14T10:35:30;102709.47;;;4.37;100.00
60817;BME280;51921;51.518;-3.188;2023-02-14T10:37:58;102713.45;;;3.14;100.00
60817;BME280;51921;51.518;-3.188;2023-02-14T10:42:47;102706.52;;;4.87;100.00
60817;BME280;51921;51.518;-3.188;2023-02-14T10:45:17;102704.42;;;3.85;100.00
60817;BME280;51921;51.518;-3.188;2023-02-14T10:47:41;102708.66;;;3.05;100.00
60817;BME280;51921;51.518;-3.188;2023-02-14T10:50:05;102714.75;;;2.62;100.00
60817;BME280;51921;51.518;-3.188;2023-02-14T10:52:26;102715.55;;;4.07;100.00
60817;BME280;51921;51.518;-3.188;2023-02-14T10:54:53;102704.32;;;4.82;100.00
60817;BME280;51921;51.518;-3.188;2023-02-14T10:57:16;102701.63;;;4.83;100.00
60817;BME280;51921;51.518;-3.188;2023-02-14T10:59:46;102700.87;;;5.15;100.00
60817;BME280;51921;51.518;-3.188;2023-02-14T11:02:05;102698.91;;;3.27;100.00
60817;BME280;51921;51.518;-3.188;2023-02-14T11:04:30;102697.15;;;3.15;100.00
60817;BME280;51921;51.518;-3.188;2023-02-14T11:06:54;102695.42;;;3.36;100.00
60817;BME280;51921;51.518;-3.188;2023-02-14T11:09:20;102699.61;;;3.74;100.00
60817;BME280;51921;51.518;-3.188;2023-02-14T11:11:47;102701.22;;;3.68;100.00
60817;BME280;51921;51.518;-3.188;2023-02-14T11:14:21;102704.80;;;3.54;100.00
60817;BME280;51921;51.518;-3.188;2023-02-14T11:16:36;102704.82;;;3.96;100.00
60817;BME280;51921;51.518;-3.188;2023-02-14T11:19:09;102705.42;;;2.75;100.00
60817;BME280;51921;51.518;-3.188;2023-02-14T11:21:35;102701.01;;;3.70;100.00
60817;BME280;51921;51.518;-3.188;2023-02-14T11:23:51;102700.53;;;3.65;100.00
60817;BME280;51921;51.518;-3.188;2023-02-14T11:26:22;102701.72;;;3.99;100.00
60817;BME280;51921;51.518;-3.188;2023-02-14T11:28:49;102702.44;;;3.83;100.00
60817;BME280;51921;51.518;-3.188;2023-02-14T11:31:08;102694.56;;;4.82;100.00
60817;BME280;51921;51.518;-3.188;2023-02-14T11:33:38;102692.60;;;7.04;100.00
60817;BME280;51921;51.518;-3.188;2023-02-14T11:36:00;102681.18;;;7.32;100.00
60817;BME280;51921;51.518;-3.188;2023-02-14T11:38:28;102674.29;;;9.38;100.00
60817;BME280;51921;51.518;-3.188;2023-02-14T11:40:58;102668.34;;;4.60;100.00
60817;BME280;51921;51.518;-3.188;2023-02-14T11:43:19;102678.39;;;4.72;100.00
60817;BME280;51921;51.518;-3.188;2023-02-14T11:45:42;102668.01;;;5.53;100.00
60817;BME280;51921;51.518;-3.188;2023-02-14T11:48:13;102661.89;;;7.25;100.00
60817;BME280;51921;51.518;-3.188;2023-02-14T11:50:32;102652.68;;;6.23;100.00
60817;BME280;51921;51.518;-3.188;2023-02-14T11:52:57;102659.09;;;5.64;100.00
60817;BME280;51921;51.518;-3.188;2023-02-14T11:55:26;102671.25;;;4.47;100.00
60817;BME280;51921;51.518;-3.188;2023-02-14T11:57:47;102667.68;;;4.81;100.00
60817;BME280;51921;51.518;-3.188;2023-02-14T12:00:17;102657.27;;;6.02;100.00
60817;BME280;51921;51.518;-3.188;2023-02-14T12:02:40;102651.59;;;6.64;100.00
60817;BME280;51921;51.518;-3.188;2023-02-14T12:05:13;102649.22;;;6.72;100.00
60817;BME280;51921;51.518;-3.188;2023-02-14T12:07:31;102652.13;;;4.59;100.00
60817;BME280;51921;51.518;-3.188;2023-02-14T12:10:07;102646.43;;;6.44;100.00
60817;BME280;51921;51.518;-3.188;2023-02-14T12:12:22;102648.39;;;8.03;100.00
60817;BME280;51921;51.518;-3.188;2023-02-14T12:14:46;102647.18;;;6.47;100.00
60817;BME280;51921;51.518;-3.188;2023-02-14T12:17:22;102645.21;;;6.26;100.00
60817;BME280;51921;51.518;-3.188;2023-02-14T12:19:43;102644.35;;;5.67;100.00
60817;BME280;51921;51.518;-3.188;2023-02-14T12:22:04;102645.90;;;4.96;100.00
60817;BME280;51921;51.518;-3.188;2023-02-14T12:24:32;102639.87;;;6.06;100.00
60817;BME280;51921;51.518;-3.188;2023-02-14T12:26:59;102632.04;;;7.53;100.00
60817;BME280;51921;51.518;-3.188;2023-02-14T12:29:21;102625.85;;;7.59;100.00
60817;BME280;51921;51.518;-3.188;2023-02-14T12:31:45;102628.66;;;5.39;100.00
60817;BME280;51921;51.518;-3.188;2023-02-14T12:34:10;102621.16;;;7.53;100.00
60817;BME280;51921;51.518;-3.188;2023-02-14T12:36:50;102615.23;;;6.36;100.00
60817;BME280;51921;51.518;-3.188;2023-02-14T12:39:06;102606.69;;;7.57;100.00
60817;BME280;51921;51.518;-3.188;2023-02-14T12:41:34;102600.86;;;8.76;100.00